Terminal Aerodrome Forecast
Issued by NWS

Home | Current Version | Previous Version | Text Only | Print | Product List | Glossary On
Versions: 1 2 3 4 5 6 7 8 9 10 11 12
020
FTPA31 PHFO 250539
TAFHJR
TAF
PHJR 250539Z 2506/2606 VRB04KT P6SM SCT025 SCT060
     FM250700 04005KT P6SM FEW030 SCT060
     FM252000 04008G12KT P6SM SCT025 SCT060
     FM260400 05005KT P6SM SCT025 SCT060=

USA.gov is the U.S. government's official web portal to all federal, state and local government web resources and services.